Time;durP1;ratioP1;P1;durP2;ratioP2;P2;SDS_P1;SDS_P2;PMS_P1;PMS_P2;Temp;Humidity;BMP_temperature;BMP_pressure;BME280_temperature;BME280_humidity;BME280_pressure;Samples;Min_cycle;Max_cycle;Signal;HPM_P1;HPM_P2
2022/01/07 00:01:01;;;;;;;2.67;1.90;;;7.70;86.20;;;;;;5036300;28;20052;-81
2022/01/07 00:03:27;;;;;;;4.22;1.83;;;7.70;86.30;;;;;;5055469;28;20056;-81
2022/01/07 00:05:53;;;;;;;3.22;2.03;;;7.80;86.30;;;;;;5053862;28;20032;-82
2022/01/07 00:08:19;;;;;;;5.30;1.70;;;7.80;86.20;;;;;;5054651;28;20021;-82
2022/01/07 00:10:44;;;;;;;5.28;2.40;;;7.90;85.90;;;;;;5039248;28;20033;-81
2022/01/07 00:13:11;;;;;;;9.30;2.00;;;7.90;85.80;;;;;;5033998;28;20103;-82
2022/01/07 00:15:37;;;;;;;4.25;1.70;;;7.90;85.60;;;;;;5035359;28;20021;-82
2022/01/07 00:18:03;;;;;;;8.80;1.98;;;7.90;85.60;;;;;;5034435;28;20783;-81
2022/01/07 00:20:28;;;;;;;4.13;1.98;;;7.90;85.80;;;;;;5055021;28;20079;-81
2022/01/07 00:22:55;;;;;;;4.03;1.90;;;7.90;86.00;;;;;;5053567;28;20025;-82
2022/01/07 00:25:22;;;;;;;3.15;2.03;;;8.00;85.90;;;;;;5056013;28;20021;-82
2022/01/07 00:27:49;;;;;;;2.80;1.98;;;7.90;85.80;;;;;;5054951;28;20487;-81
2022/01/07 00:30:16;;;;;;;4.40;1.73;;;7.90;85.90;;;;;;5037733;28;20021;-82
2022/01/07 00:32:41;;;;;;;5.80;2.22;;;7.80;86.40;;;;;;5056234;28;20044;-81
2022/01/07 00:35:08;;;;;;;3.90;1.80;;;7.80;86.70;;;;;;5057678;28;20025;-80
2022/01/07 00:37:37;;;;;;;4.13;1.85;;;7.80;86.60;;;;;;5058975;28;20488;-81
2022/01/07 00:40:09;;;;;;;3.40;1.92;;;7.80;86.60;;;;;;5054097;28;20077;-82
2022/01/07 00:42:35;;;;;;;5.35;1.73;;;7.80;86.60;;;;;;5037472;28;20515;-81
2022/01/07 00:45:01;;;;;;;3.65;2.40;;;7.70;86.80;;;;;;5039278;28;20025;-81
2022/01/07 00:47:27;;;;;;;5.65;2.45;;;7.70;87.00;;;;;;5037633;28;20025;-81
2022/01/07 00:49:52;;;;;;;3.47;2.10;;;7.70;86.90;;;;;;5038788;28;20040;-81
2022/01/07 00:52:18;;;;;;;5.72;2.22;;;7.60;87.00;;;;;;5037404;28;20036;-82
2022/01/07 00:54:44;;;;;;;3.00;2.38;;;7.60;87.00;;;;;;5038941;28;20079;-81
2022/01/07 00:57:10;;;;;;;5.30;2.15;;;7.40;87.50;;;;;;5035823;28;20117;-82
2022/01/07 00:59:35;;;;;;;3.60;2.30;;;7.40;87.70;;;;;;5036139;28;20040;-82
2022/01/07 01:02:01;;;;;;;3.92;2.20;;;7.30;88.20;;;;;;5060637;28;20044;-81
2022/01/07 01:04:27;;;;;;;4.32;2.67;;;7.30;88.50;;;;;;5077351;28;20016;-81
2022/01/07 01:06:53;;;;;;;3.65;2.60;;;7.30;88.50;;;;;;5071428;28;20032;-81
2022/01/07 01:09:18;;;;;;;3.88;2.13;;;7.30;88.20;;;;;;5064913;28;20032;-81
2022/01/07 01:11:45;;;;;;;6.63;2.67;;;7.30;88.40;;;;;;5078549;28;20040;-81
2022/01/07 01:14:11;;;;;;;5.88;3.00;;;7.30;88.80;;;;;;5076072;28;20038;-81
2022/01/07 01:16:37;;;;;;;3.65;2.45;;;7.40;88.60;;;;;;5043784;28;20030;-82
2022/01/07 01:19:04;;;;;;;4.80;2.53;;;7.40;88.40;;;;;;5038861;28;20681;-82
2022/01/07 01:21:30;;;;;;;4.40;3.00;;;7.40;88.60;;;;;;5037564;28;20021;-82
2022/01/07 01:23:55;;;;;;;8.73;3.55;;;7.30;88.60;;;;;;5038518;28;20051;-81
2022/01/07 01:26:21;;;;;;;4.72;2.92;;;7.30;88.40;;;;;;5036364;28;20025;-82
2022/01/07 01:28:47;;;;;;;6.57;3.05;;;7.30;88.60;;;;;;5038653;28;20025;-81
2022/01/07 01:31:15;;;;;;;3.50;2.75;;;7.40;88.70;;;;;;5035872;28;20075;-82
2022/01/07 01:33:43;;;;;;;3.30;2.47;;;7.40;88.20;;;;;;5036956;28;20369;-82
2022/01/07 01:36:09;;;;;;;5.90;2.55;;;7.40;88.10;;;;;;5038433;28;20069;-81
2022/01/07 01:38:35;;;;;;;5.18;2.78;;;7.50;88.00;;;;;;5037238;28;20029;-82
2022/01/07 01:41:02;;;;;;;5.85;3.25;;;7.50;87.80;;;;;;5038137;28;20029;-82
2022/01/07 01:43:28;;;;;;;5.50;2.53;;;7.50;87.70;;;;;;5037176;28;20479;-82
2022/01/07 01:45:56;;;;;;;10.07;3.00;;;7.50;87.50;;;;;;5038366;28;20041;-81
2022/01/07 01:48:23;;;;;;;8.35;2.35;;;7.60;87.50;;;;;;5037058;28;20043;-81
2022/01/07 01:50:49;;;;;;;5.18;2.97;;;7.50;87.60;;;;;;5037075;28;20310;-81
2022/01/07 01:53:15;;;;;;;3.40;2.28;;;7.50;87.50;;;;;;5038267;28;20060;-81
2022/01/07 01:55:41;;;;;;;6.43;2.38;;;7.50;87.50;;;;;;5036753;28;20535;-82
2022/01/07 01:58:07;;;;;;;4.75;2.42;;;7.40;87.50;;;;;;5037946;28;20471;-81
2022/01/07 02:00:33;;;;;;;5.13;1.70;;;7.40;87.50;;;;;;5036803;28;20111;-81
2022/01/07 02:03:01;;;;;;;4.70;1.60;;;7.30;88.10;;;;;;5038208;28;20024;-82
2022/01/07 02:05:27;;;;;;;3.38;2.47;;;7.40;88.10;;;;;;5036709;28;20026;-82
2022/01/07 02:07:53;;;;;;;6.45;2.38;;;7.30;88.00;;;;;;5036867;28;20494;-81
2022/01/07 02:10:19;;;;;;;5.95;2.10;;;7.30;88.00;;;;;;5073310;28;20481;-82
2022/01/07 02:12:46;;;;;;;5.78;1.92;;;7.30;88.00;;;;;;5061690;28;20032;-81
2022/01/07 02:15:14;;;;;;;6.45;2.03;;;7.30;88.00;;;;;;5057285;28;20037;-82
2022/01/07 02:17:42;;;;;;;5.07;2.03;;;7.20;87.70;;;;;;5056550;28;20032;-81
2022/01/07 02:20:08;;;;;;;9.65;2.38;;;7.30;87.50;;;;;;5039921;28;20033;-81
2022/01/07 02:22:34;;;;;;;5.65;2.20;;;7.30;88.00;;;;;;5036400;28;20103;-82
2022/01/07 02:25:00;;;;;;;7.75;2.28;;;7.20;88.20;;;;;;5047837;28;20033;-81
2022/01/07 02:27:26;;;;;;;3.40;2.30;;;7.30;88.30;;;;;;5037362;28;20436;-82
2022/01/07 02:29:52;;;;;;;7.28;1.95;;;7.30;88.20;;;;;;5036387;28;20553;-81
2022/01/07 02:32:19;;;;;;;7.25;2.40;;;7.40;87.90;;;;;;5036807;28;20463;-81
2022/01/07 02:34:45;;;;;;;7.45;1.95;;;7.40;88.30;;;;;;5036240;28;20447;-81
2022/01/07 02:37:12;;;;;;;5.70;2.47;;;7.40;88.20;;;;;;5037381;28;20034;-81
2022/01/07 02:39:39;;;;;;;6.68;2.15;;;7.40;88.50;;;;;;5036086;28;20036;-82
2022/01/07 02:42:05;;;;;;;5.22;2.40;;;7.30;88.30;;;;;;5036048;28;20048;-82
2022/01/07 02:44:31;;;;;;;7.13;2.58;;;7.30;88.60;;;;;;5037112;28;20365;-82
2022/01/07 02:46:57;;;;;;;10.38;2.90;;;7.30;88.70;;;;;;5035138;28;20040;-82
2022/01/07 02:49:22;;;;;;;5.40;2.67;;;7.30;88.60;;;;;;5036281;28;20057;-82
2022/01/07 02:51:48;;;;;;;8.23;2.20;;;7.30;88.60;;;;;;5036410;28;20086;-82
2022/01/07 02:54:16;;;;;;;5.07;2.30;;;7.20;88.50;;;;;;5057027;28;20072;-81
2022/01/07 02:56:42;;;;;;;6.13;2.17;;;7.20;88.40;;;;;;5055895;28;20777;-81
2022/01/07 02:59:09;;;;;;;6.40;1.92;;;7.20;88.40;;;;;;5054998;28;20021;-82
2022/01/07 03:01:37;;;;;;;3.08;2.15;;;7.20;88.40;;;;;;5056466;28;20091;-81
2022/01/07 03:04:04;;;;;;;8.55;2.00;;;7.20;88.30;;;;;;5055746;28;20070;-82
2022/01/07 03:06:30;;;;;;;6.57;2.45;;;7.30;88.30;;;;;;5056575;28;20082;-82
2022/01/07 03:08:55;;;;;;;8.25;2.58;;;7.40;88.10;;;;;;5058766;28;20024;-82
2022/01/07 03:11:23;;;;;;;4.88;2.50;;;7.40;88.20;;;;;;5076762;28;20039;-81
2022/01/07 03:13:49;;;;;;;7.65;2.22;;;7.50;88.10;;;;;;5075280;28;20505;-82
2022/01/07 03:16:15;;;;;;;9.68;2.30;;;7.50;88.10;;;;;;5070549;28;20033;-82
2022/01/07 03:18:41;;;;;;;7.65;2.35;;;7.60;88.10;;;;;;5036518;28;20507;-82
2022/01/07 03:21:07;;;;;;;7.07;2.25;;;7.60;87.80;;;;;;5035662;28;20063;-82
2022/01/07 03:23:33;;;;;;;6.32;2.75;;;7.60;87.90;;;;;;5036259;28;20040;-82
2022/01/07 03:25:58;;;;;;;6.35;2.60;;;7.70;87.90;;;;;;5035400;28;20025;-81
2022/01/07 03:28:27;;;;;;;8.07;2.25;;;7.70;87.80;;;;;;5036002;28;20083;-81
2022/01/07 03:30:52;;;;;;;6.97;2.00;;;7.70;87.80;;;;;;5035162;28;20053;-82
2022/01/07 03:33:19;;;;;;;10.57;2.35;;;7.70;88.10;;;;;;5035288;28;20429;-81
2022/01/07 03:35:45;;;;;;;4.85;2.22;;;7.80;88.00;;;;;;5036177;28;20091;-81
2022/01/07 03:38:12;;;;;;;11.18;2.60;;;7.80;88.30;;;;;;5035190;28;20022;-81
2022/01/07 03:40:37;;;;;;;4.63;2.28;;;7.80;88.30;;;;;;5036149;28;20560;-82
2022/01/07 03:43:05;;;;;;;5.60;2.08;;;7.80;88.20;;;;;;5034902;28;20044;-82
2022/01/07 03:45:31;;;;;;;7.85;2.63;;;7.90;88.30;;;;;;5036293;28;20082;-81
2022/01/07 03:47:57;;;;;;;11.80;2.60;;;7.90;88.20;;;;;;5035049;28;20033;-82
2022/01/07 03:50:25;;;;;;;12.35;2.50;;;7.90;88.20;;;;;;5034925;28;20411;-82
2022/01/07 03:52:53;;;;;;;9.40;2.35;;;7.90;88.10;;;;;;5035221;28;20025;-81
2022/01/07 03:55:23;;;;;;;10.10;2.28;;;7.90;88.20;;;;;;5034991;28;20029;-82
2022/01/07 03:57:49;;;;;;;6.25;2.90;;;7.90;88.00;;;;;;5034683;28;20504;-82
2022/01/07 04:00:19;;;;;;;6.03;1.88;;;7.90;88.10;;;;;;5033333;28;20059;-82
2022/01/07 04:02:46;;;;;;;4.03;1.90;;;7.90;87.90;;;;;;5035693;28;20065;-82
2022/01/07 04:05:14;;;;;;;9.10;1.90;;;8.00;87.60;;;;;;5050030;28;20045;-82
2022/01/07 04:07:57;;;;;;;3.60;2.00;;;8.00;87.70;;;;;;5038229;28;20056;-82
2022/01/07 04:10:23;;;;;;;8.35;2.38;;;7.90;87.40;;;;;;5072061;28;20032;-82
2022/01/07 04:12:50;;;;;;;7.53;1.77;;;7.90;87.20;;;;;;5074748;28;20155;-82
2022/01/07 04:15:16;;;;;;;5.50;1.80;;;7.90;87.00;;;;;;5069614;28;20147;-82
2022/01/07 04:17:48;;;;;;;4.05;1.92;;;7.90;86.80;;;;;;5054685;28;20060;-82
2022/01/07 04:20:16;;;;;;;8.13;2.25;;;7.90;86.70;;;;;;5048427;28;20040;-82
2022/01/07 04:22:42;;;;;;;4.63;1.90;;;7.90;86.70;;;;;;5034829;28;20040;-82
2022/01/07 04:25:17;;;;;;;7.63;1.75;;;7.90;86.60;;;;;;5035641;28;20378;-82
2022/01/07 04:27:46;;;;;;;8.60;1.83;;;7.80;86.60;;;;;;5033046;28;20049;-82
2022/01/07 04:30:12;;;;;;;6.65;2.00;;;7.80;86.80;;;;;;5034431;28;20021;-82
2022/01/07 04:32:39;;;;;;;5.68;2.15;;;7.70;86.50;;;;;;5035986;28;20468;-82
2022/01/07 04:35:06;;;;;;;5.05;1.70;;;7.70;86.40;;;;;;5034657;28;20057;-82
2022/01/07 04:37:32;;;;;;;5.70;1.83;;;7.70;86.10;;;;;;5035791;28;20033;-82
2022/01/07 04:39:58;;;;;;;4.78;2.03;;;7.70;86.30;;;;;;5034340;28;20089;-82
2022/01/07 04:42:23;;;;;;;10.85;1.88;;;7.70;86.20;;;;;;5035091;28;20018;-82
2022/01/07 04:44:49;;;;;;;8.20;1.73;;;7.50;85.60;;;;;;5034577;28;20427;-82
2022/01/07 04:47:15;;;;;;;3.92;1.60;;;7.50;85.70;;;;;;5034366;28;20384;-82
2022/01/07 04:49:40;;;;;;;3.03;1.70;;;7.40;86.00;;;;;;5038044;28;20029;-82
2022/01/07 04:52:07;;;;;;;4.95;1.70;;;7.40;85.80;;;;;;5054252;28;20063;-82
2022/01/07 04:54:33;;;;;;;2.80;1.55;;;7.30;86.00;;;;;;5055836;28;20102;-82
2022/01/07 04:56:59;;;;;;;7.75;1.25;;;7.30;85.70;;;;;;5054250;28;20098;-82
2022/01/07 04:59:25;;;;;;;8.20;1.90;;;7.20;85.60;;;;;;5043777;28;20033;-82
2022/01/07 05:01:51;;;;;;;3.30;1.42;;;7.20;85.70;;;;;;5034210;28;20045;-82
2022/01/07 05:04:16;;;;;;;6.63;1.65;;;7.20;85.90;;;;;;5034308;28;20032;-82
2022/01/07 05:06:45;;;;;;;8.85;1.40;;;7.20;85.80;;;;;;5035826;28;20105;-82
2022/01/07 05:09:13;;;;;;;5.68;1.60;;;7.20;85.80;;;;;;5051676;28;20027;-82
2022/01/07 05:11:39;;;;;;;2.78;1.77;;;7.10;86.00;;;;;;5079380;28;20050;-82
2022/01/07 05:14:05;;;;;;;3.90;1.40;;;7.10;85.70;;;;;;5074972;28;20028;-82
2022/01/07 05:16:34;;;;;;;5.95;1.95;;;7.00;85.70;;;;;;5057611;28;20364;-82
2022/01/07 05:19:00;;;;;;;6.90;1.50;;;7.00;85.80;;;;;;5050662;28;20402;-81
2022/01/07 05:21:26;;;;;;;7.00;1.75;;;7.00;85.90;;;;;;5056331;28;20487;-83
2022/01/07 05:23:52;;;;;;;3.90;1.42;;;7.00;85.70;;;;;;5040189;28;20029;-81
2022/01/07 05:26:17;;;;;;;2.20;1.40;;;6.90;85.80;;;;;;5036385;28;20021;-84
2022/01/07 05:28:43;;;;;;;6.45;2.08;;;6.90;86.10;;;;;;5040668;28;20022;-84
2022/01/07 05:31:09;;;;;;;8.02;1.50;;;6.90;85.80;;;;;;5037338;28;20025;-83
2022/01/07 05:33:34;;;;;;;9.75;2.00;;;6.90;85.70;;;;;;5049335;28;20543;-82
2022/01/07 05:36:00;;;;;;;3.95;1.40;;;6.90;85.70;;;;;;5049084;28;20443;-83
2022/01/07 05:38:26;;;;;;;6.43;1.55;;;6.80;85.90;;;;;;5035787;28;20053;-82
2022/01/07 05:40:51;;;;;;;5.60;1.92;;;6.90;85.80;;;;;;5039557;28;20022;-83
2022/01/07 05:43:17;;;;;;;6.32;1.70;;;6.80;85.60;;;;;;5037381;28;20021;-83
2022/01/07 05:45:45;;;;;;;3.08;1.30;;;6.80;85.70;;;;;;5050118;28;20031;-89
2022/01/07 06:25:02;;;;;;;10.77;1.83;;;4.90;90.80;;;;;;5069542;28;20448;-81
2022/01/07 06:27:27;;;;;;;3.90;1.65;;;5.00;90.80;;;;;;5063447;28;20113;-80
2022/01/07 06:29:54;;;;;;;6.65;1.55;;;5.20;90.30;;;;;;5067965;28;20123;-77
2022/01/07 06:32:20;;;;;;;4.13;1.48;;;5.50;89.60;;;;;;5070107;28;20035;-78
2022/01/07 06:34:46;;;;;;;8.05;2.03;;;5.80;89.00;;;;;;5054460;28;20041;-78
2022/01/07 06:37:12;;;;;;;11.50;1.90;;;6.00;87.90;;;;;;5070110;28;20107;-81
2022/01/07 06:39:37;;;;;;;7.72;1.80;;;6.20;87.50;;;;;;5070818;28;20081;-80
2022/01/07 06:42:04;;;;;;;6.68;1.83;;;6.20;86.70;;;;;;5072838;28;20080;-79
2022/01/07 06:44:29;;;;;;;8.80;2.55;;;6.30;86.40;;;;;;5071422;28;20029;-83
2022/01/07 06:46:58;;;;;;;7.13;1.58;;;6.30;85.80;;;;;;5069834;28;20013;-84
2022/01/07 06:49:23;;;;;;;7.25;1.83;;;6.40;85.80;;;;;;5070631;28;20043;-85
2022/01/07 06:51:50;;;;;;;6.95;1.70;;;6.50;85.60;;;;;;5070375;28;20104;-83
2022/01/07 06:54:16;;;;;;;5.82;1.70;;;6.40;85.50;;;;;;5072151;28;20025;-82
2022/01/07 06:56:43;;;;;;;5.43;1.65;;;6.50;85.30;;;;;;5070129;28;20498;-84
2022/01/07 06:59:12;;;;;;;11.07;2.30;;;6.60;85.10;;;;;;5071116;28;20376;-77
2022/01/07 07:01:41;;;;;;;12.15;2.45;;;6.70;85.10;;;;;;5071081;28;20024;-76
2022/01/07 07:04:29;;;;;;;;;;;;;;;;;;;;;
2022/01/07 07:06:55;;;;;;;5.13;1.65;;;6.70;84.80;;;;;;5064549;28;20035;-82
2022/01/07 07:09:21;;;;;;;7.32;1.55;;;6.80;84.80;;;;;;5074116;28;20469;-88
2022/01/07 07:11:47;;;;;;;2.38;1.38;;;6.80;84.50;;;;;;5071419;28;20113;-84
2022/01/07 07:14:13;;;;;;;5.95;1.38;;;6.80;84.20;;;;;;5069704;28;20451;-82
2022/01/07 07:16:39;;;;;;;6.25;1.70;;;6.80;84.00;;;;;;5061750;28;20024;-80
2022/01/07 07:19:05;;;;;;;8.13;1.58;;;6.90;83.80;;;;;;5070847;28;20478;-78
2022/01/07 07:21:34;;;;;;;7.47;1.70;;;6.90;83.90;;;;;;5069979;28;20025;-79
2022/01/07 07:24:01;;;;;;;4.38;1.45;;;6.90;83.60;;;;;;5070876;28;20087;-80
2022/01/07 07:26:27;;;;;;;4.70;1.73;;;6.90;83.70;;;;;;5070593;28;20032;-81
2022/01/07 07:28:52;;;;;;;5.45;1.60;;;6.90;83.60;;;;;;5064982;28;20029;-78
2022/01/07 07:31:19;;;;;;;6.22;2.03;;;7.00;83.50;;;;;;5050866;28;20051;-76
2022/01/07 07:36:30;;;;;;;4.20;1.98;;;7.00;83.70;;;;;;5038757;28;20361;-81
2022/01/07 07:39:04;;;;;;;3.45;1.50;;;7.00;83.60;;;;;;5054442;28;20446;-82
2022/01/07 07:41:30;;;;;;;7.55;1.90;;;7.00;83.50;;;;;;5057262;28;20028;-82
2022/01/07 07:46:45;;;;;;;5.57;1.98;;;7.00;83.20;;;;;;5052899;28;20041;-82
2022/01/07 07:49:11;;;;;;;4.65;1.73;;;7.00;83.30;;;;;;5057367;28;20162;-82
2022/01/07 07:51:37;;;;;;;7.32;2.35;;;7.00;83.40;;;;;;5057404;28;20098;-82
2022/01/07 07:54:04;;;;;;;2.78;1.40;;;6.90;83.40;;;;;;5056813;28;20536;-80
2022/01/07 07:56:31;;;;;;;4.43;1.65;;;7.00;83.40;;;;;;5038457;28;20026;-80
2022/01/07 07:58:59;;;;;;;5.45;1.65;;;6.90;83.20;;;;;;5037058;28;20060;-81
2022/01/07 08:01:28;;;;;;;5.57;1.38;;;6.90;83.00;;;;;;5040559;28;20025;-78
2022/01/07 08:03:53;;;;;;;8.68;2.25;;;6.80;83.20;;;;;;5054960;28;20223;-78
2022/01/07 08:06:19;;;;;;;7.45;1.95;;;6.80;82.90;;;;;;5056312;28;20056;-78
2022/01/07 08:08:46;;;;;;;5.03;1.50;;;6.80;83.10;;;;;;5057535;28;20036;-78
2022/01/07 08:11:13;;;;;;;9.73;1.90;;;6.80;82.90;;;;;;5055334;28;20037;-79
2022/01/07 08:16:23;;;;;;;5.75;1.73;;;6.80;82.90;;;;;;5056867;28;20083;-82
2022/01/07 08:18:55;;;;;;;4.93;1.70;;;6.70;82.80;;;;;;5049437;28;20032;-82
2022/01/07 08:21:24;;;;;;;6.13;1.65;;;6.70;82.80;;;;;;5037020;28;20034;-82
2022/01/07 08:23:51;;;;;;;3.97;1.70;;;6.70;82.50;;;;;;5036374;28;20046;-82
2022/01/07 08:26:18;;;;;;;3.63;1.67;;;6.70;82.60;;;;;;5036594;28;20392;-82
2022/01/07 08:28:49;;;;;;;4.15;2.55;;;6.70;82.50;;;;;;5036371;28;20036;-82
2022/01/07 08:36:29;;;;;;;6.40;1.70;;;6.80;82.10;;;;;;5036596;28;20036;-81
2022/01/07 08:38:55;;;;;;;4.53;1.40;;;6.90;82.10;;;;;;5036394;28;20505;-82
2022/01/07 08:41:24;;;;;;;6.85;1.80;;;7.00;81.60;;;;;;5035134;28;20112;-82
2022/01/07 08:43:50;;;;;;;4.78;1.65;;;7.10;81.40;;;;;;5036236;28;20021;-83
2022/01/07 08:46:16;;;;;;;9.57;1.52;;;7.20;80.90;;;;;;5035276;28;20033;-82
2022/01/07 08:48:42;;;;;;;6.07;2.03;;;7.30;81.00;;;;;;5036029;28;20038;-82
2022/01/07 08:51:09;;;;;;;4.32;1.30;;;7.20;80.70;;;;;;5049299;28;20029;-82
2022/01/07 08:53:36;;;;;;;6.85;1.40;;;7.20;80.70;;;;;;5054509;28;20029;-82
2022/01/07 08:56:02;;;;;;;7.88;2.05;;;7.10;80.90;;;;;;5055932;28;20476;-82
2022/01/07 08:58:28;;;;;;;4.25;1.92;;;7.10;80.80;;;;;;5049130;28;20025;-82
2022/01/07 09:00:55;;;;;;;4.40;1.30;;;7.20;80.90;;;;;;5035708;28;20357;-82
2022/01/07 09:03:21;;;;;;;4.55;1.25;;;7.20;80.50;;;;;;5034397;28;20037;-83
2022/01/07 09:05:47;;;;;;;6.82;1.60;;;7.20;80.50;;;;;;5034218;28;20075;-83
2022/01/07 09:08:13;;;;;;;8.98;1.77;;;7.20;80.50;;;;;;5034864;28;20082;-83
2022/01/07 09:10:39;;;;;;;6.95;1.50;;;7.20;80.30;;;;;;5065635;28;20089;-82
2022/01/07 09:13:05;;;;;;;9.27;1.98;;;7.30;80.50;;;;;;5035581;28;20099;-83
2022/01/07 09:15:31;;;;;;;5.78;1.40;;;7.30;80.20;;;;;;5050042;28;20024;-82
2022/01/07 09:17:57;;;;;;;5.63;1.40;;;7.30;80.10;;;;;;5035732;28;20034;-78
2022/01/07 09:20:23;;;;;;;5.00;1.70;;;7.30;79.90;;;;;;5035522;28;20033;-78
2022/01/07 09:22:53;;;;;;;2.28;0.90;;;7.50;80.10;;;;;;5046412;28;20021;-80
2022/01/07 09:25:19;;;;;;;1.98;1.15;;;7.50;79.70;;;;;;5034702;28;20468;-82
2022/01/07 09:27:45;;;;;;;6.40;1.80;;;7.70;79.50;;;;;;5034265;28;20117;-81
2022/01/07 09:30:11;;;;;;;4.75;1.60;;;7.90;78.80;;;;;;5051779;28;20108;-80
2022/01/07 09:32:40;;;;;;;7.45;1.35;;;8.10;78.70;;;;;;5054294;28;20025;-80
2022/01/07 09:35:07;;;;;;;1.48;1.00;;;8.20;78.10;;;;;;5046285;28;20064;-80
2022/01/07 09:37:33;;;;;;;5.40;1.50;;;8.00;78.20;;;;;;5035360;28;20056;-76
2022/01/07 09:40:00;;;;;;;4.18;1.40;;;8.20;78.40;;;;;;5034947;28;20017;-80
2022/01/07 09:42:27;;;;;;;3.05;0.90;;;8.20;78.00;;;;;;5035218;28;20017;-81
2022/01/07 09:44:53;;;;;;;4.53;1.35;;;8.20;78.20;;;;;;5034956;28;20551;-81
2022/01/07 09:47:19;;;;;;;6.07;1.50;;;8.20;78.40;;;;;;5034703;28;20029;-81
2022/01/07 09:49:45;;;;;;;2.70;1.10;;;8.20;78.10;;;;;;5037191;28;20028;-80
2022/01/07 09:52:11;;;;;;;3.72;1.60;;;8.20;78.00;;;;;;5046787;28;20029;-76
2022/01/07 09:54:39;;;;;;;5.68;1.33;;;8.30;78.30;;;;;;5053066;28;20033;-79
2022/01/07 09:57:07;;;;;;;3.80;1.23;;;8.30;78.00;;;;;;5034866;28;20052;-80
2022/01/07 09:59:36;;;;;;;2.70;1.30;;;8.30;78.10;;;;;;5046519;28;20525;-79
2022/01/07 10:02:04;;;;;;;2.85;1.40;;;8.40;77.70;;;;;;5051375;28;20028;-80
2022/01/07 10:04:33;;;;;;;5.97;1.20;;;8.40;78.00;;;;;;5049109;28;20492;-80
2022/01/07 10:07:22;;;;;;;6.38;1.27;;;8.40;78.20;;;;;;5043672;28;20041;-80
2022/01/07 10:10:14;;;;;;;3.28;1.23;;;8.50;78.20;;;;;;5059055;28;20041;-80
2022/01/07 10:12:55;;;;;;;5.47;1.38;;;8.50;77.70;;;;;;5034594;28;20060;-80
2022/01/07 10:15:27;;;;;;;5.97;1.13;;;8.60;77.70;;;;;;5034712;28;20031;-81
2022/01/07 10:18:00;;;;;;;4.22;1.40;;;8.70;77.50;;;;;;5033147;28;20446;-81
2022/01/07 10:20:36;;;;;;;6.72;1.27;;;8.70;77.50;;;;;;5034379;28;20113;-81
2022/01/07 10:23:09;;;;;;;3.53;1.60;;;8.90;77.40;;;;;;5034328;28;20073;-80
2022/01/07 10:25:37;;;;;;;4.38;1.67;;;9.00;76.50;;;;;;5049884;28;20076;-80
2022/01/07 10:28:12;;;;;;;5.25;1.15;;;9.30;76.30;;;;;;5049764;28;20042;-80
2022/01/07 10:30:46;;;;;;;5.45;1.17;;;9.50;76.30;;;;;;5034613;28;20110;-82
2022/01/07 10:33:22;;;;;;;4.72;1.27;;;9.60;75.60;;;;;;5034629;28;20499;-80
2022/01/07 10:35:51;;;;;;;4.80;1.00;;;9.50;75.50;;;;;;5034229;28;20028;-80
2022/01/07 10:38:28;;;;;;;3.08;1.50;;;9.40;75.40;;;;;;5036395;28;20116;-81
2022/01/07 10:40:59;;;;;;;4.03;1.33;;;9.30;75.30;;;;;;5032769;28;20036;-81
2022/01/07 10:43:36;;;;;;;8.23;1.63;;;9.60;75.00;;;;;;5034277;28;20410;-81
2022/01/07 10:46:10;;;;;;;6.60;1.90;;;9.70;74.00;;;;;;5034147;28;20089;-82
2022/01/07 10:48:53;;;;;;;10.38;1.98;;;9.60;73.60;;;;;;5032882;28;20170;-82
2022/01/07 10:51:25;;;;;;;7.38;3.13;;;9.50;73.90;;;;;;5034008;28;20168;-82
2022/01/07 10:54:05;;;;;;;6.90;1.95;;;9.50;73.50;;;;;;5033997;28;20119;-81
2022/01/07 10:56:43;;;;;;;12.90;2.15;;;9.50;73.70;;;;;;5045807;28;20035;-81
2022/01/07 10:59:16;;;;;;;2.42;1.42;;;9.40;73.70;;;;;;5053960;28;20070;-81
2022/01/07 11:01:43;;;;;;;4.72;1.40;;;9.40;74.00;;;;;;5050790;28;20033;-81
2022/01/07 11:04:12;;;;;;;5.68;1.73;;;9.50;73.70;;;;;;5052825;28;20032;-82
2022/01/07 11:06:39;;;;;;;6.35;2.30;;;9.50;74.00;;;;;;5052330;28;20091;-83
2022/01/07 11:09:09;;;;;;;5.22;1.63;;;9.60;73.00;;;;;;5051868;28;20023;-84
2022/01/07 11:11:39;;;;;;;3.93;1.90;;;9.60;73.40;;;;;;5037437;28;20031;-80
2022/01/07 11:14:07;;;;;;;7.28;1.73;;;9.70;73.30;;;;;;5038004;28;20038;-83
2022/01/07 11:16:35;;;;;;;5.15;1.92;;;9.80;73.40;;;;;;5037328;28;20033;-83
2022/01/07 11:19:02;;;;;;;7.55;2.13;;;9.70;72.50;;;;;;5037335;28;20072;-84
2022/01/07 11:21:29;;;;;;;3.53;1.30;;;9.70;72.10;;;;;;5037243;28;20033;-83
2022/01/07 11:23:54;;;;;;;9.18;2.00;;;9.70;72.30;;;;;;5038005;28;20052;-84
2022/01/07 11:26:20;;;;;;;4.95;1.20;;;9.80;72.30;;;;;;5036292;28;20106;-84
2022/01/07 11:29:12;;;;;;;4.30;1.63;;;9.70;72.20;;;;;;5037606;28;20030;-84
2022/01/07 11:31:38;;;;;;;6.07;1.73;;;9.80;72.10;;;;;;5036088;28;20041;-84
2022/01/07 11:34:19;;;;;;;7.25;1.52;;;9.90;71.90;;;;;;5036668;28;20047;-83
2022/01/07 11:36:53;;;;;;;3.15;1.42;;;9.90;72.00;;;;;;5053057;28;20029;-85
2022/01/07 11:39:21;;;;;;;7.03;1.33;;;9.90;72.00;;;;;;5040023;28;20029;-85
2022/01/07 11:41:55;;;;;;;7.25;1.98;;;9.80;71.80;;;;;;5037682;28;20550;-86
2022/01/07 11:44:30;;;;;;;5.63;1.70;;;9.80;72.30;;;;;;5044406;28;20108;-83
2022/01/07 11:47:24;;;;;;;5.28;1.55;;;9.80;72.50;;;;;;5037680;28;20029;-87
2022/01/07 11:50:06;;;;;;;5.57;1.58;;;9.80;72.40;;;;;;5050451;28;20044;-82
2022/01/07 11:52:37;;;;;;;5.50;2.17;;;9.90;72.30;;;;;;5053190;28;20041;-88
2022/01/07 11:55:24;;;;;;;4.78;1.58;;;10.00;71.80;;;;;;5045441;28;20057;-89
2022/01/07 11:57:52;;;;;;;13.15;2.42;;;10.00;71.30;;;;;;5049730;28;20139;-89
2022/01/07 12:00:57;;;;;;;4.47;1.75;;;10.10;71.90;;;;;;5054170;28;20025;-88
2022/01/07 12:03:48;;;;;;;5.90;1.42;;;10.10;71.80;;;;;;5050477;28;20561;-89
2022/01/07 12:06:23;;;;;;;3.08;1.33;;;10.10;71.90;;;;;;5045533;28;20454;-85
2022/01/07 12:09:05;;;;;;;5.13;1.23;;;10.10;71.50;;;;;;5049295;28;20111;-83
2022/01/07 12:11:47;;;;;;;7.88;2.22;;;10.10;71.70;;;;;;5043857;28;20033;-79
2022/01/07 12:14:34;;;;;;;10.27;1.77;;;10.20;71.80;;;;;;5049643;28;20029;-82
2022/01/07 12:17:02;;;;;;;8.27;1.50;;;10.20;71.00;;;;;;5048685;28;20049;-86
2022/01/07 12:19:37;;;;;;;7.30;2.78;;;10.30;71.20;;;;;;5048836;28;20502;-80
2022/01/07 12:22:07;;;;;;;9.40;2.25;;;10.30;70.70;;;;;;5041406;28;20133;-77
2022/01/07 12:24:33;;;;;;;3.58;1.45;;;10.40;70.50;;;;;;5048680;28;20073;-82
2022/01/07 12:27:02;;;;;;;8.70;2.33;;;10.50;70.60;;;;;;5046137;28;20037;-83
2022/01/07 12:29:32;;;;;;;8.13;1.67;;;10.40;69.80;;;;;;5044865;28;20021;-84
2022/01/07 12:31:58;;;;;;;9.63;2.00;;;10.50;70.90;;;;;;5045117;28;20032;-83
2022/01/07 12:34:28;;;;;;;10.80;2.47;;;10.60;69.70;;;;;;5046221;28;20047;-83
2022/01/07 12:36:56;;;;;;;12.52;2.00;;;10.60;70.40;;;;;;5045652;28;20095;-83
2022/01/07 12:39:30;;;;;;;7.25;1.80;;;10.80;69.90;;;;;;5043252;28;20063;-83
2022/01/07 12:41:57;;;;;;;10.25;2.28;;;10.80;69.40;;;;;;5044603;28;20025;-83
2022/01/07 12:44:23;;;;;;;7.75;1.73;;;10.90;69.90;;;;;;5044863;28;20155;-83
2022/01/07 12:46:55;;;;;;;5.45;1.65;;;10.90;69.60;;;;;;5044718;28;20034;-83
2022/01/07 12:49:38;;;;;;;10.60;2.00;;;10.80;69.80;;;;;;5044565;28;20021;-83
2022/01/07 12:52:06;;;;;;;6.75;1.83;;;10.80;69.80;;;;;;5044619;28;20037;-83
2022/01/07 12:54:33;;;;;;;10.90;1.95;;;10.70;70.00;;;;;;5042651;28;20068;-83
2022/01/07 12:56:59;;;;;;;8.85;1.70;;;10.70;70.20;;;;;;5044581;28;20032;-83
2022/01/07 12:59:26;;;;;;;4.82;1.55;;;10.50;69.90;;;;;;5044495;28;20108;-83
2022/01/07 13:01:52;;;;;;;14.98;2.65;;;10.50;70.60;;;;;;5044526;28;20017;-83
2022/01/07 13:04:21;;;;;;;4.57;1.67;;;10.40;70.40;;;;;;5044011;28;20039;-83
2022/01/07 13:06:51;;;;;;;5.80;2.10;;;10.30;71.10;;;;;;5044034;28;20021;-82
2022/01/07 13:09:23;;;;;;;8.07;2.13;;;10.30;71.10;;;;;;5044849;28;20013;-83
2022/01/07 13:11:51;;;;;;;8.25;2.53;;;10.40;71.20;;;;;;5045611;28;20033;-85
2022/01/07 13:14:20;;;;;;;6.35;2.00;;;10.40;70.40;;;;;;5040700;28;20094;-81
2022/01/07 13:16:57;;;;;;;12.98;1.88;;;10.40;70.60;;;;;;5053958;28;20028;-80
2022/01/07 13:19:23;;;;;;;6.25;1.65;;;10.50;70.10;;;;;;5064856;28;20021;-81
2022/01/07 13:21:52;;;;;;;7.43;2.38;;;10.40;69.40;;;;;;5050771;28;20018;-80
2022/01/07 13:24:22;;;;;;;10.35;1.55;;;10.30;70.00;;;;;;5034015;28;20147;-82
2022/01/07 13:26:56;;;;;;;13.73;2.67;;;10.30;70.50;;;;;;5035765;28;20040;-86
2022/01/07 13:29:24;;;;;;;15.90;2.22;;;10.20;70.40;;;;;;5043611;28;20175;-84
2022/01/07 13:32:02;;;;;;;7.63;1.60;;;10.20;70.60;;;;;;5055158;28;20020;-83
2022/01/07 13:34:36;;;;;;;10.32;1.73;;;10.20;71.00;;;;;;5040482;28;20040;-84
2022/01/07 13:37:04;;;;;;;8.23;1.75;;;10.30;71.10;;;;;;5035362;28;20018;-84
2022/01/07 13:39:56;;;;;;;8.57;2.00;;;10.50;70.60;;;;;;5035510;28;20032;-84
2022/01/07 13:42:25;;;;;;;4.60;1.83;;;10.60;70.30;;;;;;5036109;28;20038;-84
2022/01/07 13:44:59;;;;;;;12.00;2.28;;;10.60;69.80;;;;;;5034845;28;20120;-84
2022/01/07 13:47:36;;;;;;;5.78;1.60;;;10.70;69.80;;;;;;5033897;28;20032;-84
2022/01/07 13:50:09;;;;;;;8.50;2.10;;;10.70;70.10;;;;;;5035023;28;20045;-84
2022/01/07 13:52:36;;;;;;;5.05;1.63;;;10.70;69.30;;;;;;5035318;28;20025;-82